Timeline UpdatesTrip UpdatesNews PostsPvt PostsTravel TipsAdmin PostsConv PostsFollowed PostsChat RequestsBlog PostsPNR Posts

Disclaimer
Search
 
 
Tue Sep 2, 2014 02:34:26 ISTHomeTrainsΣChainsAtlasPNRForumGalleryNewsFAQTripsMembersLoginFeedback
Latest...
Change in timings ex - Originating and Terminating Station ex 01.09.2014
Sun Aug 31, 2014 (07:08AM)
⇐ Return Journey: Train# 15484

14083⇒15483/Sikkim Mahananda Express

OLD Time-Table. New TT will soon be available.
Aug 31 (7:06AM)
Change Departure Station:
Change Arrival Station:
Post a Train Travel TipPost a Train Travel Tip **new
Post a Comment/Question/Picture/VideoPost a Comment/Question/Picture/Video
Pantry/Catering
✓ Pantry Car Avbl
✓ Catering Avbl
RSA - Rake Sharing
Rake/Coach Composition
LOCO-SLR-GS-GS-GS-AB-B1-PC-S11-S10-S9-S8-S7-S6-S5-S4-S3-S2-S1-GS-GS-GS-SLR
Loco
SGUJ WDP-4 (APDJ to PNBE), GZB/MGS WAP-4 (PNBE to DLI)
News    PNR    Forum    Time-Table    Availability    Fare Chart    Map    Arr/Dep History    Trips    Gallery    ΣChains    X/O    Timeline    
Travel Time: 36h 50m    56 halts    Distance: 1652 km    Avg Speed: 44 km/hr
Type: Mail/Express
Zone: NFR/Northeast Frontier
Departs @ 09:50
Platform# 1
SMTWTFS
Alipur Duar Junction/APDJ 
Arrives @ 22:40 +1 night
Platform# 11
SMTWTFS
Old Delhi Junction/DLI 

56 halts. 292 intermediate Stations between Alipur Duar Junction and Old Delhi Junction

Show ALL intermediate Stations  

#CodeStation NameX/OArrivesAvgDepartsAvgHaltPFDay#KmSpeedElevZoneAddress
1APDJ»Alipur Duar Junction (3)»  -09:50-110.07053mNFRDist - Alipurduar, West Bengal
2HSAHasimara (3)X  10:20-10:22-2m--134.863123mNFRDist - Alipurduar, West Bengal
3DLODalgaon (3)  10:46-10:47-1m1160.138 NFRDist : Alipurduar, West Bengal
4BNVBinnaguri (3)  11:01-11:02-1m--169.165132mNFRDist : jalpaiguri, West Bengal
5NMZNew Mal Junction (3)X  11:43-11:48-5m--1113.443161mNFRDist - Jalpaiguri, West Bengal
6SGUJSiliguri Junction (5)X  12:55-13:00-5m--1161.212120mNFRDist-Darjeeling Siliguri-734001, West Bengal
7NJPNew Jalpaiguri Junction (8)X  13:35-13:55-20m31168.577114mNFRCity-Siliguri . Dist-Jalpaiguri, West Bengal
8AUBAluabari Road (2)  14:39-14:41-2m21225.2630mNFRDist - uttar Dinajpur, West Bengal
9KNEKishanGanj (3)X  15:10-15:15-5m21255.87152mNFRKishanganj, Bihar
10DLKDalkhola (3)X  15:39-15:40-1m101284.35844mNFRDalkola, West Bengal
11BOEBarsoi Junction (3)  16:10-16:12-2m--1313.45337mNFRdist- katihar, Bihar
12AZRAzamnagar Road (3)  16:27-16:28-1m--1326.73034mNFRAzamnagar, Bihar
13LAVLabha (2)  17:10-17:11-1m11347.81529mNFRDist : Katihar, Bihar
14KIRKatihar Junction (7)X  18:45-19:00-15m51370.64635mNFRKatihar 854105, Bihar
15SMOSemapur19:15-19:16-1m--1382.16535mECRKatihar, Bihar
16CRRKaragola Road  19:26-19:27-1m--1392.97836mECRLachhmipur, Bihar
17KUEKurselaX  19:40-19:41-1m--1409.84831mECRNH 31, Bihar
18NNANaugachia (3)  20:04-20:05-1m--1428.46437mECRBhagalpur, Bihar
19THBThana Bihpur Junction (3)X  20:20-20:21-1m--1444.35139mECRThana Bihpur, Bihar
20NNRNarayanpur (2)  20:30-20:31-1m--1451.95439mECRNarayanpur, Bihar
21PSRPasraha (3)X  20:44-20:45-1m--1463.55341mECRPasraha, Bihar
22MSKMahes Khunt (2)  20:59-21:00-1m--1475.95737mECRMaheshkhunt, Bihar
23MNEMansi Junction (4)X  21:11-21:12-1m--1486.33343mECRMansi, Bihar
24KGGKhagaria Junction (3)X  21:28-21:29-1m--1495.16243mECRKhagaria, Bihar
25SKJSahibpur Kamal Junction (2)  21:41-21:42-1m--1507.54241mECRShahpur Kamal, Bihar
26LKNLakhminia (3)  21:56-21:57-1m--1517.23645mECRBegusarai, Bihar
27BGSBegusarai (3)X  22:27-22:28-1m--1535.02246mECRBegusarai, Bihar
28BJUBarauni Junction (9)X  23:05-23:10-5m11548.42849mECRBegusarai, Bihar
29MKAMokama Junction (4)X  23:54-23:56-2m31569.18848mECRPatna, Bihar
30BKPBakhtiyarpur Junction (5)  00:26-00:28-2m--2613.24751mECRPatna, Bihar
31PNBEPatna Junction (10)X  01:25-01:50-25m42658.33557mECRPatna 800001, Bihar
32DNRDanapur (5)  02:06-02:08-2m--2667.79158mECRKhagaul, Bihar
33ARAAra Junction (3)  02:34-02:36-2m--2707.37163mECRarrah( 06182-233411), Bihar
34BXRBuxar (3)X  03:34-03:36-2m--2775.84767mECRBuxar, Bihar
35MGSMughal Sarai Junction (8)X  05:35-05:45-10m42869.74583mECRMughalsarai 232101, Uttar Pradesh
36MZPMirzapur (3)  07:09-07:10-1m--2932.94088mNCRMirzapur, Uttar Pradesh
37BDLVindhyachal (3)X  07:21-07:22-1m--2940.27788mNCRMirzapur, Uttar Pradesh
38NYNNaini Junction (4)  08:20-08:22-2m221014.92498mNCRAllahabad, Uttar Pradesh
39ALDAllahabad Junction (10)X  08:40-08:55-15m321022.064100mNCRAllahabad 211003, Uttar Pradesh
40FTPFatehpur (3)  10:44-10:45-1m--21138.852120mNCRFatehpur, Uttar Pradesh
41CNBKanpur Central (10)  12:15-12:25-10m521216.429128mNCRKANPUR-208 001, Uttar Pradesh
42PNKPanki (3)X  12:49-12:50-1m--21227.937129mNCRKANPUR-208 020, Uttar Pradesh
43RURARura (4)X  13:43-13:44-1m--21260.757137mNCRJhinjhak, Uttar Pradesh
44JJKJhinjhak (3)  14:04-14:05-1m321279.770140mNCRAuraiya, Uttar Pradesh
45PHDPhaphund (4)X  14:22-14:23-1m--21299.663146mNCRdist. Auraiya, Uttar Pradesh
46ULDAchalda (3)X  14:39-14:40-1m--21316.365147mNCRDist. Auraiya(05688-1072), Uttar Pradesh
47BNTBharthana (3)X  14:58-14:59-1m--21335.952147mNCRBharthana, Uttar Pradesh
48ETWEtawah (5)X  15:22-15:23-1m221355.774154mNCRDistt. Etawah, Uttar Pradesh
49SKBShikohabad Junction (4)  16:08-16:09-1m321411.157166mNCRDistrict Firozabad, Uttar Pradesh
50FZDFirozabad (4)XO  16:30-16:31-1m321431.016164mNCRFirozabad, Uttar Pradesh
51TDLTundla Junction (5)  17:35-17:45-10m221447.670167mNCRDistt.Firozabad, Uttar Pradesh
52JLSJalesar Road (1)  18:09-18:10-1m121475.455172mNCRMDR 106W, Uttar Pradesh
53HRSHathras Junction (3)  18:32-18:33-1m--21495.582183mNCRMahamaya Nagar(05722-242803), Uttar Pradesh
54ALJNAligarh Junction (4)O  18:55-19:00-5m221525.749192mNCRAligarh, Uttar Pradesh
55KRJKhurja Junction (4)XO  19:53-19:58-5m--21569.235199mNCRBulandshahr, Uttar Pradesh
56GZBGhaziabad Junction (6)X  21:45-21:47-2m321631.948217mNRGhaziabad, Uttar Pradesh
57DSAShahdara Junction (4)  22:04-22:05-1m--21645.511212mNRCircular Rd, Delhi NCT
58DLI•Old Delhi Junction (16)•  22:40--1121651.8-219mNRNear Chandni Chowk Metro Station, Delhi NCT
Scroll to Top
Scroll to Bottom